createdAt,value
2018-05-01T00:00:01.909Z,0.00
2018-05-01T00:01:01.926Z,0.00
2018-05-01T00:02:01.944Z,0.00
2018-05-01T00:03:01.964Z,0.00
2018-05-01T00:04:01.979Z,0.00
2018-05-01T00:05:01.998Z,0.00
2018-05-01T00:06:02.015Z,0.00
2018-05-01T00:07:02.034Z,0.00
2018-05-01T00:08:02.049Z,0.00
2018-05-01T00:09:02.067Z,0.00
2018-05-01T00:10:02.085Z,0.00
2018-05-01T00:11:02.103Z,0.00
2018-05-01T00:12:02.125Z,0.00
2018-05-01T00:13:02.137Z,0.00
2018-05-01T00:14:02.155Z,0.00
2018-05-01T00:15:02.178Z,0.00
2018-05-01T00:16:02.190Z,0.00
2018-05-01T00:17:02.211Z,0.00
2018-05-01T00:18:02.225Z,0.00
2018-05-01T00:19:02.243Z,0.00
2018-05-01T00:20:02.261Z,0.00
2018-05-01T00:21:02.279Z,0.00
2018-05-01T00:22:02.295Z,0.00
2018-05-01T00:23:02.316Z,0.00
2018-05-01T00:24:02.331Z,0.00
2018-05-01T00:25:02.349Z,0.00
2018-05-01T00:26:02.366Z,0.00
2018-05-01T00:27:02.383Z,0.00
2018-05-01T00:28:02.400Z,0.00
2018-05-01T00:29:02.419Z,0.00
2018-05-01T00:30:02.436Z,0.00
2018-05-01T00:31:02.458Z,0.00
2018-05-01T00:32:02.476Z,0.00
2018-05-01T00:33:02.488Z,0.00
2018-05-01T00:34:02.507Z,0.00
2018-05-01T00:35:02.524Z,0.00
2018-05-01T00:36:02.539Z,0.00
2018-05-01T00:37:02.557Z,0.00
2018-05-01T00:38:02.575Z,0.00
2018-05-01T00:39:02.593Z,0.00
2018-05-01T00:40:02.610Z,0.00
2018-05-01T00:41:02.645Z,0.00
2018-05-01T00:42:02.645Z,0.00
2018-05-01T00:43:02.663Z,0.00
2018-05-01T00:44:02.679Z,0.00
2018-05-01T00:45:02.699Z,0.00
2018-05-01T00:46:02.714Z,0.00
2018-05-01T00:47:02.732Z,0.00
2018-05-01T00:48:02.749Z,0.00
2018-05-01T00:49:02.766Z,0.00
2018-05-01T00:50:02.785Z,0.00
2018-05-01T00:51:02.805Z,0.00
2018-05-01T00:52:02.818Z,0.00
2018-05-01T00:53:02.836Z,0.00
2018-05-01T00:54:02.853Z,0.00
2018-05-01T00:55:02.871Z,0.00
2018-05-01T00:56:02.887Z,0.00
2018-05-01T00:57:02.906Z,0.00
2018-05-01T00:58:02.921Z,0.00
2018-05-01T00:59:02.940Z,0.00
2018-05-01T01:00:02.956Z,0.00
2018-05-01T01:01:02.974Z,0.00
2018-05-01T01:02:02.991Z,0.00
2018-05-01T01:03:03.008Z,0.00
2018-05-01T01:04:03.025Z,0.00
2018-05-01T01:05:03.045Z,0.00
2018-05-01T01:06:03.060Z,0.00
2018-05-01T01:07:03.078Z,0.00
2018-05-01T01:08:03.095Z,0.00
2018-05-01T01:09:03.111Z,0.00
2018-05-01T01:10:03.129Z,0.00
2018-05-01T01:11:03.146Z,0.00
2018-05-01T01:12:03.163Z,0.00
2018-05-01T01:13:03.185Z,0.00
2018-05-01T01:14:03.200Z,0.00
2018-05-01T01:15:03.220Z,0.00
2018-05-01T01:16:03.233Z,0.00
2018-05-01T01:17:03.250Z,0.00
2018-05-01T01:18:03.266Z,0.00
2018-05-01T01:19:03.285Z,0.00
2018-05-01T01:20:03.299Z,0.00
2018-05-01T01:21:03.317Z,0.00
2018-05-01T01:22:03.335Z,0.00
2018-05-01T01:23:03.352Z,0.00
2018-05-01T01:24:03.370Z,0.00
2018-05-01T01:25:03.387Z,0.00
2018-05-01T01:26:03.403Z,0.00
2018-05-01T01:27:03.421Z,0.00
2018-05-01T01:28:03.437Z,0.00
2018-05-01T01:29:03.454Z,0.00
2018-05-01T01:30:03.474Z,0.00
2018-05-01T01:31:03.491Z,0.00
2018-05-01T01:32:03.506Z,0.00
2018-05-01T01:33:03.523Z,0.00
2018-05-01T01:34:03.541Z,0.00
2018-05-01T01:35:03.558Z,0.00
2018-05-01T01:36:03.573Z,0.00
2018-05-01T01:37:03.592Z,0.00
2018-05-01T01:38:03.608Z,0.00
2018-05-01T01:39:03.625Z,0.00
2018-05-01T01:40:03.648Z,0.00
2018-05-01T01:41:03.660Z,0.00
2018-05-01T01:42:03.677Z,0.00
2018-05-01T01:43:03.694Z,0.00
2018-05-01T01:44:03.712Z,0.00
2018-05-01T01:45:03.729Z,0.00
2018-05-01T01:46:03.746Z,0.00
2018-05-01T01:47:03.763Z,0.00
2018-05-01T01:48:03.779Z,0.00
2018-05-01T01:49:03.796Z,0.00
2018-05-01T01:50:03.813Z,0.00
2018-05-01T01:51:03.830Z,0.00
2018-05-01T01:52:03.847Z,0.00
2018-05-01T01:53:03.864Z,0.00
2018-05-01T01:54:03.881Z,0.00
2018-05-01T01:55:03.899Z,0.00
2018-05-01T01:56:03.916Z,0.00
2018-05-01T01:57:03.932Z,0.00
2018-05-01T01:58:03.950Z,0.00
2018-05-01T01:59:03.967Z,0.00
2018-05-01T02:00:03.984Z,0.00
2018-05-01T02:01:04.000Z,0.00
2018-05-01T02:02:04.017Z,0.00
2018-05-01T02:03:04.035Z,0.00
2018-05-01T02:04:04.051Z,0.00
2018-05-01T02:05:04.068Z,0.00
2018-05-01T02:06:04.086Z,0.00
2018-05-01T02:07:04.103Z,0.00
2018-05-01T02:08:04.120Z,0.00
2018-05-01T02:09:04.136Z,0.00
2018-05-01T02:10:04.153Z,0.00
2018-05-01T02:11:04.171Z,0.00
2018-05-01T02:12:04.187Z,0.00
2018-05-01T02:13:04.208Z,0.00
2018-05-01T02:14:04.221Z,0.00
2018-05-01T02:15:04.239Z,0.00
2018-05-01T02:16:04.255Z,0.00
2018-05-01T02:17:04.275Z,0.00
2018-05-01T02:18:04.289Z,0.00
2018-05-01T02:19:04.313Z,0.00
2018-05-01T02:20:04.322Z,0.00
2018-05-01T02:21:04.354Z,0.00
2018-05-01T02:22:04.357Z,0.00
2018-05-01T02:23:04.374Z,0.00
2018-05-01T02:24:04.391Z,0.00
2018-05-01T02:25:04.410Z,0.00
2018-05-01T02:26:04.425Z,0.00
2018-05-01T02:27:04.442Z,0.00
2018-05-01T02:28:04.458Z,0.00
2018-05-01T02:29:04.476Z,0.00
2018-05-01T02:30:04.494Z,0.00
2018-05-01T02:31:04.606Z,0.00
2018-05-01T02:32:04.528Z,0.00
2018-05-01T02:33:04.544Z,0.00
2018-05-01T02:34:04.560Z,0.00
2018-05-01T02:35:04.578Z,0.00
2018-05-01T02:36:04.594Z,0.00
2018-05-01T02:37:04.611Z,0.00
2018-05-01T02:38:04.634Z,0.00
2018-05-01T02:39:04.648Z,0.00
2018-05-01T02:40:04.666Z,0.00
2018-05-01T02:41:04.684Z,0.00
2018-05-01T02:42:04.696Z,0.00
2018-05-01T02:43:04.714Z,0.00
2018-05-01T02:44:04.731Z,0.00
2018-05-01T02:45:04.748Z,0.00
2018-05-01T02:46:04.767Z,0.00
2018-05-01T02:47:04.782Z,0.00
2018-05-01T02:48:04.797Z,0.00
2018-05-01T02:49:04.814Z,0.00
2018-05-01T02:50:04.834Z,0.00
2018-05-01T02:51:04.850Z,0.00
2018-05-01T02:52:04.864Z,0.00
2018-05-01T02:53:04.882Z,0.00
2018-05-01T02:54:04.899Z,0.00
2018-05-01T02:55:04.920Z,0.00
2018-05-01T02:56:04.933Z,0.00
2018-05-01T02:57:04.949Z,0.00
2018-05-01T02:58:05.317Z,0.00
2018-05-01T02:59:04.983Z,0.00
2018-05-01T03:00:04.999Z,0.00
2018-05-01T03:01:05.017Z,0.00
2018-05-01T03:02:05.033Z,0.00
2018-05-01T03:03:05.051Z,0.00
2018-05-01T03:04:05.067Z,0.00
2018-05-01T03:05:05.084Z,0.00
2018-05-01T03:06:05.100Z,0.00
2018-05-01T03:07:05.118Z,0.00
2018-05-01T03:08:05.134Z,0.00
2018-05-01T03:09:05.152Z,0.00
2018-05-01T03:10:05.169Z,0.00
2018-05-01T03:11:05.195Z,0.00
2018-05-01T03:12:05.202Z,0.00
2018-05-01T03:13:05.217Z,0.00
2018-05-01T03:14:05.237Z,0.00
2018-05-01T03:15:05.253Z,0.00
2018-05-01T03:16:05.269Z,0.00
2018-05-01T03:17:05.286Z,0.00
2018-05-01T03:18:05.303Z,0.00
2018-05-01T03:19:05.320Z,0.00
2018-05-01T03:20:05.337Z,0.00
2018-05-01T03:21:05.354Z,0.00
2018-05-01T03:22:05.371Z,0.00
2018-05-01T03:23:05.386Z,0.00
2018-05-01T03:24:05.406Z,0.00
2018-05-01T03:25:05.420Z,0.00
2018-05-01T03:26:05.439Z,0.00
2018-05-01T03:27:05.455Z,0.00
2018-05-01T03:28:05.472Z,0.00
2018-05-01T03:29:05.487Z,0.00
2018-05-01T03:30:05.506Z,0.00
2018-05-01T03:31:05.526Z,0.00
2018-05-01T03:32:05.584Z,0.00
2018-05-01T03:33:05.555Z,0.00
2018-05-01T03:34:05.572Z,0.00
2018-05-01T03:35:05.589Z,0.00
2018-05-01T03:36:05.603Z,0.00
2018-05-01T03:37:05.622Z,0.00
2018-05-01T03:38:05.638Z,0.00
2018-05-01T03:39:05.747Z,0.00
2018-05-01T03:40:05.674Z,0.00
2018-05-01T03:41:05.690Z,0.00
2018-05-01T03:42:05.707Z,0.00
2018-05-01T03:43:05.723Z,0.00
2018-05-01T03:44:05.739Z,0.00
2018-05-01T03:45:05.756Z,0.00
2018-05-01T03:46:05.773Z,0.00
2018-05-01T03:47:05.792Z,0.00
2018-05-01T03:48:05.807Z,0.00
2018-05-01T03:49:05.821Z,0.00
2018-05-01T03:50:05.841Z,0.00
2018-05-01T03:51:05.857Z,0.00
2018-05-01T03:52:05.873Z,0.00
2018-05-01T03:53:05.890Z,0.00
2018-05-01T03:54:05.905Z,0.00
2018-05-01T03:55:05.925Z,0.00
2018-05-01T03:56:05.976Z,0.00
2018-05-01T03:57:05.958Z,0.00
2018-05-01T03:58:05.978Z,0.00
2018-05-01T03:59:05.994Z,0.00
2018-05-01T04:00:06.006Z,0.00
2018-05-01T04:01:06.024Z,0.00
2018-05-01T04:02:06.044Z,0.00
2018-05-01T04:03:06.058Z,0.00
2018-05-01T04:04:06.074Z,0.00
2018-05-01T04:05:06.091Z,0.00
2018-05-01T04:06:06.109Z,0.00
2018-05-01T04:07:06.126Z,0.00
2018-05-01T04:08:06.142Z,0.00
2018-05-01T04:09:06.157Z,0.00
2018-05-01T04:10:06.175Z,0.00
2018-05-01T04:11:06.194Z,0.00
2018-05-01T04:12:06.209Z,0.00
2018-05-01T04:13:06.225Z,0.00
2018-05-01T04:14:06.242Z,0.00
2018-05-01T04:15:06.259Z,0.00
2018-05-01T04:16:06.275Z,0.00
2018-05-01T04:17:06.293Z,0.00
2018-05-01T04:18:06.309Z,0.00
2018-05-01T04:19:06.326Z,0.00
2018-05-01T04:20:06.342Z,0.00
2018-05-01T04:21:06.362Z,0.00
2018-05-01T04:22:06.376Z,0.00
2018-05-01T04:23:06.393Z,0.00
2018-05-01T04:24:06.409Z,0.00
2018-05-01T04:25:06.428Z,0.00
2018-05-01T04:26:06.442Z,0.00
2018-05-01T04:27:06.460Z,0.00
2018-05-01T04:28:06.476Z,0.00
2018-05-01T04:29:06.493Z,0.00
2018-05-01T04:30:06.511Z,0.00
2018-05-01T04:31:06.526Z,0.00
2018-05-01T04:32:06.544Z,0.00
2018-05-01T04:33:06.560Z,0.00
2018-05-01T04:34:06.576Z,0.00
2018-05-01T04:35:06.594Z,0.00
2018-05-01T04:36:06.611Z,0.00
2018-05-01T04:37:06.631Z,0.00
2018-05-01T04:38:06.643Z,0.00
2018-05-01T04:39:06.660Z,0.00
2018-05-01T04:40:06.679Z,0.00
2018-05-01T04:41:06.694Z,0.00
2018-05-01T04:42:06.711Z,0.00
2018-05-01T04:43:06.728Z,5.63
2018-05-01T04:44:06.744Z,0.00
2018-05-01T04:45:06.761Z,5.63
2018-05-01T04:46:06.777Z,5.63
2018-05-01T04:47:06.794Z,5.63
2018-05-01T04:48:06.813Z,5.63
2018-05-01T04:49:06.830Z,5.63
2018-05-01T04:50:06.894Z,5.63
2018-05-01T04:51:06.862Z,5.63
2018-05-01T04:52:06.877Z,5.63
2018-05-01T04:53:06.895Z,5.63
2018-05-01T04:54:06.916Z,5.63
2018-05-01T04:55:06.928Z,5.63
2018-05-01T04:56:06.944Z,5.63
2018-05-01T04:57:06.962Z,5.63
2018-05-01T04:58:06.978Z,5.63
2018-05-01T04:59:06.995Z,5.63
2018-05-01T05:00:07.010Z,5.63
2018-05-01T05:01:07.028Z,5.63
2018-05-01T05:02:07.045Z,5.63
2018-05-01T05:03:07.062Z,5.63
2018-05-01T05:04:07.078Z,5.63
2018-05-01T05:05:07.095Z,5.63
2018-05-01T05:06:07.112Z,5.63
2018-05-01T05:07:07.129Z,11.25
2018-05-01T05:08:07.146Z,5.63
2018-05-01T05:09:07.163Z,5.63
2018-05-01T05:10:07.179Z,5.63
2018-05-01T05:11:07.197Z,5.63
2018-05-01T05:12:07.212Z,11.25
2018-05-01T05:13:07.231Z,5.63
2018-05-01T05:14:07.248Z,5.63
2018-05-01T05:15:07.264Z,5.63
2018-05-01T05:16:07.281Z,5.63
2018-05-01T05:17:07.297Z,5.63
2018-05-01T05:18:07.314Z,5.63
2018-05-01T05:19:07.335Z,11.25
2018-05-01T05:20:07.349Z,5.63
2018-05-01T05:21:07.365Z,11.25
2018-05-01T05:22:07.379Z,5.63
2018-05-01T05:23:07.398Z,5.63
2018-05-01T05:24:07.413Z,5.63
2018-05-01T05:25:07.431Z,5.63
2018-05-01T05:26:07.448Z,5.63
2018-05-01T05:27:07.465Z,5.63
2018-05-01T05:28:07.482Z,5.63
2018-05-01T05:29:07.499Z,11.25
2018-05-01T05:30:07.515Z,11.25
2018-05-01T05:31:07.533Z,11.25
2018-05-01T05:32:07.549Z,11.25
2018-05-01T05:33:07.570Z,11.25
2018-05-01T05:34:07.583Z,11.25
2018-05-01T05:35:07.599Z,11.25
2018-05-01T05:36:07.615Z,11.25
2018-05-01T05:37:07.633Z,11.25
2018-05-01T05:38:07.651Z,11.25
2018-05-01T05:39:07.667Z,11.25
2018-05-01T05:40:07.684Z,11.25
2018-05-01T05:41:07.699Z,11.25
2018-05-01T05:42:07.782Z,16.88
2018-05-01T05:43:07.735Z,11.25
2018-05-01T05:44:07.751Z,16.88
2018-05-01T05:45:07.771Z,16.88
2018-05-01T05:46:07.786Z,16.88
2018-05-01T05:47:07.803Z,11.25
2018-05-01T05:48:07.819Z,11.25
2018-05-01T05:49:07.836Z,11.25
2018-05-01T05:50:07.853Z,11.25
2018-05-01T05:51:07.875Z,16.88
2018-05-01T05:52:07.888Z,11.25
2018-05-01T05:53:07.909Z,11.25
2018-05-01T05:54:08.222Z,11.25
2018-05-01T05:55:07.938Z,11.25
2018-05-01T05:56:07.962Z,11.25
2018-05-01T05:57:07.972Z,11.25
2018-05-01T05:58:07.989Z,11.25
2018-05-01T05:59:08.007Z,11.25
2018-05-01T06:00:08.025Z,11.25
2018-05-01T06:01:08.097Z,5.63
2018-05-01T06:02:08.057Z,5.63
2018-05-01T06:03:08.075Z,5.63
2018-05-01T06:04:08.090Z,11.25
2018-05-01T06:05:08.108Z,5.63
2018-05-01T06:06:08.125Z,5.63
2018-05-01T06:07:08.143Z,5.63
2018-05-01T06:08:08.160Z,5.63
2018-05-01T06:09:08.176Z,11.25
2018-05-01T06:10:08.193Z,5.63
2018-05-01T06:11:08.210Z,11.25
2018-05-01T06:12:08.226Z,11.25
2018-05-01T06:13:08.244Z,11.25
2018-05-01T06:14:08.262Z,16.88
2018-05-01T06:15:08.279Z,11.25
2018-05-01T06:16:08.296Z,11.25
2018-05-01T06:17:08.312Z,16.88
2018-05-01T06:18:08.328Z,11.25
2018-05-01T06:19:08.347Z,11.25
2018-05-01T06:20:08.362Z,16.88
2018-05-01T06:21:08.380Z,16.88
2018-05-01T06:22:08.482Z,11.25
2018-05-01T06:23:08.414Z,16.88
2018-05-01T06:24:08.431Z,16.88
2018-05-01T06:25:08.449Z,16.88
2018-05-01T06:26:08.466Z,16.88
2018-05-01T06:27:08.482Z,22.50
2018-05-01T06:28:08.497Z,22.50
2018-05-01T06:29:08.524Z,16.88
2018-05-01T06:30:08.783Z,16.88
2018-05-01T06:31:08.640Z,22.50
2018-05-01T06:32:08.566Z,16.88
2018-05-01T06:33:08.583Z,16.88
2018-05-01T06:34:08.610Z,11.25
2018-05-01T06:35:08.618Z,16.88
2018-05-01T06:36:08.634Z,16.88
2018-05-01T06:37:08.654Z,16.88
2018-05-01T06:38:08.669Z,16.88
2018-05-01T06:39:08.687Z,16.88
2018-05-01T06:40:08.704Z,16.88
2018-05-01T06:41:08.720Z,16.88
2018-05-01T06:42:08.741Z,22.50
2018-05-01T06:43:08.754Z,16.88
2018-05-01T06:44:08.775Z,22.50
2018-05-01T06:45:08.788Z,16.88
2018-05-01T06:46:08.804Z,16.88
2018-05-01T06:47:08.822Z,16.88
2018-05-01T06:48:08.839Z,22.50
2018-05-01T06:49:08.856Z,22.50
2018-05-01T06:50:08.873Z,22.50
2018-05-01T06:51:08.893Z,28.13
2018-05-01T06:52:08.906Z,28.13
2018-05-01T06:53:08.923Z,28.13
2018-05-01T06:54:08.940Z,22.50
2018-05-01T06:55:08.958Z,22.50
2018-05-01T06:56:08.974Z,22.50
2018-05-01T06:57:08.995Z,22.50
2018-05-01T06:58:09.009Z,16.88
2018-05-01T06:59:09.027Z,16.88
2018-05-01T07:00:09.043Z,16.88
2018-05-01T07:01:09.063Z,22.50
2018-05-01T07:02:09.077Z,22.50
2018-05-01T07:03:09.095Z,22.50
2018-05-01T07:04:09.110Z,22.50
2018-05-01T07:05:09.129Z,22.50
2018-05-01T07:06:09.145Z,22.50
2018-05-01T07:07:09.168Z,22.50
2018-05-01T07:08:09.179Z,33.75
2018-05-01T07:09:09.196Z,33.75
2018-05-01T07:10:09.215Z,33.75
2018-05-01T07:11:09.231Z,33.75
2018-05-01T07:12:09.247Z,28.13
2018-05-01T07:13:09.265Z,28.13
2018-05-01T07:14:09.284Z,28.13
2018-05-01T07:15:09.301Z,28.13
2018-05-01T07:16:09.316Z,28.13
2018-05-01T07:17:09.334Z,33.75
2018-05-01T07:18:09.354Z,28.13
2018-05-01T07:19:09.369Z,28.13
2018-05-01T07:20:09.385Z,28.13
2018-05-01T07:21:09.485Z,33.75
2018-05-01T07:22:09.420Z,33.75
2018-05-01T07:23:09.436Z,45.00
2018-05-01T07:24:09.454Z,45.00
2018-05-01T07:25:09.473Z,45.00
2018-05-01T07:26:09.490Z,33.75
2018-05-01T07:27:09.505Z,33.75
2018-05-01T07:28:09.522Z,45.00
2018-05-01T07:29:09.540Z,39.38
2018-05-01T07:30:09.557Z,39.38
2018-05-01T07:31:09.577Z,28.13
2018-05-01T07:32:09.592Z,33.75
2018-05-01T07:33:09.609Z,28.13
2018-05-01T07:34:09.626Z,28.13
2018-05-01T07:35:09.644Z,33.75
2018-05-01T07:36:09.661Z,39.38
2018-05-01T07:37:09.678Z,45.00
2018-05-01T07:38:09.699Z,39.38
2018-05-01T07:39:09.714Z,39.38
2018-05-01T07:40:09.731Z,39.38
2018-05-01T07:41:09.749Z,45.00
2018-05-01T07:42:09.766Z,33.75
2018-05-01T07:43:09.783Z,45.00
2018-05-01T07:44:09.800Z,33.75
2018-05-01T07:45:09.817Z,33.75
2018-05-01T07:46:09.835Z,45.00
2018-05-01T07:47:09.852Z,33.75
2018-05-01T07:48:09.870Z,39.38
2018-05-01T07:49:09.954Z,45.00
2018-05-01T07:50:09.904Z,39.38
2018-05-01T07:51:09.922Z,33.75
2018-05-01T07:52:09.938Z,39.38
2018-05-01T07:53:09.955Z,33.75
2018-05-01T07:54:09.973Z,33.75
2018-05-01T07:55:09.991Z,39.38
2018-05-01T07:56:10.007Z,45.00
2018-05-01T07:57:10.027Z,45.00
2018-05-01T07:58:10.044Z,45.00
2018-05-01T07:59:10.061Z,45.00
2018-05-01T08:00:10.076Z,39.38
2018-05-01T08:01:10.095Z,45.00
2018-05-01T08:02:10.113Z,45.00
2018-05-01T08:03:10.131Z,50.63
2018-05-01T08:04:10.147Z,45.00
2018-05-01T08:05:10.165Z,45.00
2018-05-01T08:06:10.189Z,50.63
2018-05-01T08:07:10.200Z,50.63
2018-05-01T08:08:10.217Z,50.63
2018-05-01T08:09:10.233Z,50.63
2018-05-01T08:10:10.253Z,56.25
2018-05-01T08:11:10.270Z,56.25
2018-05-01T08:12:10.301Z,56.25
2018-05-01T08:13:10.304Z,50.63
2018-05-01T08:14:10.323Z,56.25
2018-05-01T08:15:10.340Z,56.25
2018-05-01T08:16:10.356Z,56.25
2018-05-01T08:17:10.374Z,56.25
2018-05-01T08:18:10.391Z,50.63
2018-05-01T08:19:10.409Z,45.00
2018-05-01T08:20:10.428Z,39.38
2018-05-01T08:21:10.458Z,45.00
2018-05-01T08:22:10.463Z,45.00
2018-05-01T08:23:10.479Z,39.38
2018-05-01T08:24:10.499Z,45.00
2018-05-01T08:25:10.594Z,39.38
2018-05-01T08:26:10.532Z,39.38
2018-05-01T08:27:10.617Z,45.00
2018-05-01T08:28:10.566Z,45.00
2018-05-01T08:29:10.584Z,50.63
2018-05-01T08:30:10.606Z,56.25
2018-05-01T08:31:10.620Z,61.88
2018-05-01T08:32:10.636Z,61.88
2018-05-01T08:33:10.654Z,61.88
2018-05-01T08:34:10.673Z,61.88
2018-05-01T08:35:10.690Z,56.25
2018-05-01T08:36:10.707Z,61.88
2018-05-01T08:37:10.729Z,73.13
2018-05-01T08:38:10.743Z,95.63
2018-05-01T08:39:10.759Z,95.63
2018-05-01T08:40:10.862Z,95.63
2018-05-01T08:41:10.794Z,101.25
2018-05-01T08:42:10.812Z,112.50
2018-05-01T08:43:10.830Z,118.13
2018-05-01T08:44:11.198Z,129.38
2018-05-01T08:45:10.912Z,146.25
2018-05-01T08:46:10.884Z,163.13
2018-05-01T08:47:11.203Z,168.75
2018-05-01T08:48:11.320Z,185.63
2018-05-01T08:49:10.936Z,208.13
2018-05-01T08:50:11.254Z,191.25
2018-05-01T08:51:10.972Z,168.75
2018-05-01T08:52:10.989Z,151.88
2018-05-01T08:53:11.009Z,151.88
2018-05-01T08:54:11.026Z,168.75
2018-05-01T08:55:11.044Z,196.88
2018-05-01T08:56:11.062Z,191.25
2018-05-01T08:57:11.080Z,236.25
2018-05-01T08:58:11.102Z,219.38
2018-05-01T08:59:11.117Z,236.25
2018-05-01T09:00:11.134Z,247.50
2018-05-01T09:01:11.153Z,230.63
2018-05-01T09:02:11.171Z,247.50
2018-05-01T09:03:11.190Z,236.25
2018-05-01T09:04:11.220Z,213.75
2018-05-01T09:05:11.225Z,236.25
2018-05-01T09:06:11.245Z,180.00
2018-05-01T09:07:11.262Z,146.25
2018-05-01T09:08:11.282Z,157.50
2018-05-01T09:09:11.300Z,140.63
2018-05-01T09:10:11.324Z,140.63
2018-05-01T09:11:11.637Z,123.75
2018-05-01T09:12:11.355Z,101.25
2018-05-01T09:13:11.379Z,140.63
2018-05-01T09:14:11.392Z,135.00
2018-05-01T09:15:11.411Z,123.75
2018-05-01T09:16:11.430Z,151.88
2018-05-01T09:17:11.447Z,140.63
2018-05-01T09:18:11.578Z,135.00
2018-05-01T09:19:11.485Z,118.13
2018-05-01T09:20:11.502Z,123.75
2018-05-01T09:21:11.522Z,146.25
2018-05-01T09:22:11.541Z,140.63
2018-05-01T09:23:11.558Z,180.00
2018-05-01T09:24:11.576Z,180.00
2018-05-01T09:25:11.594Z,174.38
2018-05-01T09:26:11.612Z,196.88
2018-05-01T09:27:11.635Z,196.88
2018-05-01T09:28:11.650Z,196.88
2018-05-01T09:29:11.667Z,196.88
2018-05-01T09:30:11.687Z,174.38
2018-05-01T09:31:11.706Z,168.75
2018-05-01T09:32:11.722Z,168.75
2018-05-01T09:33:11.742Z,180.00
2018-05-01T09:34:11.761Z,191.25
2018-05-01T09:35:11.788Z,202.50
2018-05-01T09:36:11.798Z,191.25
2018-05-01T09:37:11.817Z,185.63
2018-05-01T09:38:11.836Z,213.75
2018-05-01T09:39:11.855Z,225.00
2018-05-01T09:40:11.872Z,236.25
2018-05-01T09:41:11.892Z,196.88
2018-05-01T09:42:11.910Z,196.88
2018-05-01T09:43:11.933Z,196.88
2018-05-01T09:44:11.948Z,213.75
2018-05-01T09:45:11.967Z,219.38
2018-05-01T09:46:11.986Z,202.50
2018-05-01T09:47:12.005Z,208.13
2018-05-01T09:48:13.376Z,208.13
2018-05-01T09:49:12.043Z,202.50
2018-05-01T09:50:12.063Z,196.88
2018-05-01T09:51:12.081Z,196.88
2018-05-01T09:52:12.100Z,191.25
2018-05-01T09:53:12.181Z,185.63
2018-05-01T09:54:12.138Z,180.00
2018-05-01T09:55:12.157Z,185.63
2018-05-01T09:56:12.176Z,180.00
2018-05-01T09:57:12.197Z,180.00
2018-05-01T09:58:12.215Z,191.25
2018-05-01T09:59:12.234Z,180.00
2018-05-01T10:00:12.253Z,174.38
2018-05-01T10:01:12.272Z,180.00
2018-05-01T10:02:12.290Z,219.38
2018-05-01T10:03:12.311Z,191.25
2018-05-01T10:04:12.329Z,185.63
2018-05-01T10:05:12.348Z,191.25
2018-05-01T10:06:12.369Z,219.38
2018-05-01T10:07:12.387Z,196.88
2018-05-01T10:08:12.407Z,191.25
2018-05-01T10:09:12.426Z,151.88
2018-05-01T10:10:12.445Z,151.88
2018-05-01T10:11:12.465Z,174.38
2018-05-01T10:12:12.500Z,174.38
2018-05-01T10:13:12.509Z,202.50
2018-05-01T10:14:12.523Z,196.88
2018-05-01T10:15:12.545Z,163.13
2018-05-01T10:16:12.561Z,174.38
2018-05-01T10:17:12.581Z,180.00
2018-05-01T10:18:12.601Z,174.38
2018-05-01T10:19:12.622Z,196.88
2018-05-01T10:20:12.640Z,213.75
2018-05-01T10:21:12.659Z,241.88
2018-05-01T10:22:12.678Z,213.75
2018-05-01T10:23:12.698Z,230.63
2018-05-01T10:24:12.717Z,253.13
2018-05-01T10:25:12.737Z,258.75
2018-05-01T10:26:12.756Z,253.13
2018-05-01T10:27:12.776Z,247.50
2018-05-01T10:28:12.794Z,247.50
2018-05-01T10:29:12.816Z,247.50
2018-05-01T10:30:12.834Z,247.50
2018-05-01T10:31:12.858Z,247.50
2018-05-01T10:32:12.874Z,253.13
2018-05-01T10:33:12.895Z,258.75
2018-05-01T10:34:12.917Z,270.00
2018-05-01T10:35:12.933Z,275.63
2018-05-01T10:36:13.204Z,275.63
2018-05-01T10:37:12.973Z,275.63
2018-05-01T10:38:12.994Z,270.00
2018-05-01T10:39:13.014Z,247.50
2018-05-01T10:40:13.036Z,236.25
2018-05-01T10:41:13.053Z,225.00
2018-05-01T10:42:13.072Z,213.75
2018-05-01T10:43:13.094Z,219.38
2018-05-01T10:44:13.114Z,225.00
2018-05-01T10:45:13.134Z,219.38
2018-05-01T10:46:13.154Z,219.38
2018-05-01T10:47:13.175Z,230.63
2018-05-01T10:48:13.194Z,225.00
2018-05-01T10:49:13.215Z,264.38
2018-05-01T10:50:13.234Z,270.00
2018-05-01T10:51:13.256Z,253.13
2018-05-01T10:52:13.275Z,253.13
2018-05-01T10:53:13.296Z,236.25
2018-05-01T10:54:13.315Z,236.25
2018-05-01T10:55:13.336Z,202.50
2018-05-01T10:56:13.357Z,202.50
2018-05-01T10:57:13.377Z,202.50
2018-05-01T10:58:13.749Z,180.00
2018-05-01T10:59:13.419Z,163.13
2018-05-01T11:00:13.438Z,151.88
2018-05-01T11:01:13.459Z,151.88
2018-05-01T11:02:13.481Z,208.13
2018-05-01T11:03:13.500Z,196.88
2018-05-01T11:04:13.521Z,196.88
2018-05-01T11:05:13.541Z,196.88
2018-05-01T11:06:13.562Z,196.88
2018-05-01T11:07:13.582Z,208.13
2018-05-01T11:08:13.602Z,213.75
2018-05-01T11:09:13.623Z,219.38
2018-05-01T11:10:13.644Z,202.50
2018-05-01T11:11:13.669Z,174.38
2018-05-01T11:12:13.684Z,180.00
2018-05-01T11:13:13.705Z,168.75
2018-05-01T11:14:13.725Z,174.38
2018-05-01T11:15:13.747Z,180.00
2018-05-01T11:16:13.766Z,191.25
2018-05-01T11:17:13.789Z,191.25
2018-05-01T11:18:13.806Z,196.88
2018-05-01T11:19:13.830Z,219.38
2018-05-01T11:20:13.847Z,230.63
2018-05-01T11:21:13.868Z,219.38
2018-05-01T11:22:13.890Z,196.88
2018-05-01T11:23:13.909Z,191.25
2018-05-01T11:24:13.928Z,191.25
2018-05-01T11:25:13.950Z,191.25
2018-05-01T11:26:14.183Z,185.63
2018-05-01T11:27:13.992Z,174.38
2018-05-01T11:28:14.012Z,180.00
2018-05-01T11:29:14.031Z,151.88
2018-05-01T11:30:14.052Z,146.25
2018-05-01T11:31:14.072Z,157.50
2018-05-01T11:32:14.092Z,163.13
2018-05-01T11:33:14.113Z,168.75
2018-05-01T11:34:14.138Z,185.63
2018-05-01T11:35:14.155Z,219.38
2018-05-01T11:36:14.174Z,202.50
2018-05-01T11:37:14.195Z,191.25
2018-05-01T11:38:14.216Z,174.38
2018-05-01T11:39:14.236Z,180.00
2018-05-01T11:40:14.257Z,174.38
2018-05-01T11:41:14.278Z,174.38
2018-05-01T11:42:14.298Z,174.38
2018-05-01T11:43:14.319Z,174.38
2018-05-01T11:44:14.340Z,180.00
2018-05-01T11:45:14.360Z,180.00
2018-05-01T11:46:14.382Z,168.75
2018-05-01T11:47:14.402Z,168.75
2018-05-01T11:48:14.423Z,174.38
2018-05-01T11:49:14.443Z,157.50
2018-05-01T11:50:14.464Z,163.13
2018-05-01T11:51:14.487Z,168.75
2018-05-01T11:52:14.504Z,168.75
2018-05-01T11:53:14.526Z,168.75
2018-05-01T11:54:14.546Z,174.38
2018-05-01T11:55:14.566Z,208.13
2018-05-01T11:56:14.590Z,202.50
2018-05-01T11:57:14.608Z,196.88
2018-05-01T11:58:14.629Z,185.63
2018-05-01T11:59:14.649Z,180.00
2018-05-01T12:00:14.669Z,174.38
2018-05-01T12:01:14.691Z,163.13
2018-05-01T12:02:14.711Z,163.13
2018-05-01T12:03:14.730Z,168.75
2018-05-01T12:04:14.751Z,180.00
2018-05-01T12:05:14.778Z,185.63
2018-05-01T12:06:14.793Z,196.88
2018-05-01T12:07:14.815Z,196.88
2018-05-01T12:08:14.835Z,208.13
2018-05-01T12:09:14.854Z,202.50
2018-05-01T12:10:14.876Z,196.88
2018-05-01T12:11:14.897Z,196.88
2018-05-01T12:12:14.916Z,191.25
2018-05-01T12:13:14.938Z,196.88
2018-05-01T12:14:14.958Z,202.50
2018-05-01T12:15:14.980Z,202.50
2018-05-01T12:16:15.076Z,208.13
2018-05-01T12:17:15.021Z,230.63
2018-05-01T12:18:15.042Z,236.25
2018-05-01T12:19:15.063Z,247.50
2018-05-01T12:20:15.082Z,258.75
2018-05-01T12:21:15.104Z,247.50
2018-05-01T12:22:15.124Z,230.63
2018-05-01T12:23:15.145Z,225.00
2018-05-01T12:24:15.166Z,225.00
2018-05-01T12:25:15.188Z,225.00
2018-05-01T12:26:15.209Z,225.00
2018-05-01T12:27:15.230Z,225.00
2018-05-01T12:28:15.251Z,230.63
2018-05-01T12:29:15.271Z,236.25
2018-05-01T12:30:15.293Z,236.25
2018-05-01T12:31:15.316Z,236.25
2018-05-01T12:32:15.334Z,241.88
2018-05-01T12:33:15.356Z,236.25
2018-05-01T12:34:15.377Z,236.25
2018-05-01T12:35:15.398Z,236.25
2018-05-01T12:36:15.419Z,236.25
2018-05-01T12:37:15.441Z,213.75
2018-05-01T12:38:15.462Z,208.13
2018-05-01T12:39:15.487Z,230.63
2018-05-01T12:40:15.506Z,219.38
2018-05-01T12:41:15.526Z,236.25
2018-05-01T12:42:15.565Z,230.63
2018-05-01T12:43:15.570Z,230.63
2018-05-01T12:44:15.590Z,241.88
2018-05-01T12:45:15.695Z,236.25
2018-05-01T12:46:15.634Z,236.25
2018-05-01T12:47:15.655Z,236.25
2018-05-01T12:48:15.755Z,230.63
2018-05-01T12:49:15.699Z,225.00
2018-05-01T12:50:15.924Z,219.38
2018-05-01T12:51:15.742Z,225.00
2018-05-01T12:52:15.762Z,230.63
2018-05-01T12:53:15.785Z,225.00
2018-05-01T12:54:15.808Z,230.63
2018-05-01T12:55:15.827Z,230.63